Time;durP1;ratioP1;P1;durP2;ratioP2;P2;SDS_P1;SDS_P2;PMS_P1;PMS_P2;Temp;Humidity;BMP_temperature;BMP_pressure;BME280_temperature;BME280_humidity;BME280_pressure;Samples;Min_cycle;Max_cycle;Signal;HPM_P1;HPM_P2
2021/11/08 00:02:09;;;;;;;17.07;12.10;;;;;;;;;;768447;180;920066;-61
2021/11/08 00:04:35;;;;;;;22.63;12.43;;;;;;;;;;774417;180;919378;-62
2021/11/08 00:07:02;;;;;;;16.13;11.50;;;;;;;;;;762301;183;919970;-62
2021/11/08 00:09:26;;;;;;;17.87;11.60;;;;;;;;;;767590;179;920000;-62
2021/11/08 00:11:52;;;;;;;19.55;11.85;;;;;;;;;;781099;178;918345;-62
2021/11/08 00:14:21;;;;;;;16.57;11.27;;;;;;;;;;766556;180;919416;-62
2021/11/08 00:19:42;;;;;;;19.23;10.90;;;;;;;;;;771094;180;920150;-62
2021/11/08 00:21:52;;;;;;;16.47;10.87;;;;;;;;;;767041;179;918932;-62
2021/11/08 00:24:23;;;;;;;16.20;11.57;;;;;;;;;;771324;180;919906;-61
2021/11/08 00:26:44;;;;;;;15.93;10.60;;;;;;;;;;769272;180;1124257;-64
2021/11/08 00:29:09;;;;;;;15.73;10.97;;;;;;;;;;769851;180;918954;-62
2021/11/08 00:31:35;;;;;;;14.03;11.07;;;;;;;;;;773344;181;918878;-61
2021/11/08 00:34:01;;;;;;;20.13;12.47;;;;;;;;;;765970;181;919216;-62
2021/11/08 00:36:27;;;;;;;19.20;13.63;;;;;;;;;;767974;180;918836;-62
2021/11/08 00:38:52;;;;;;;25.80;12.60;;;;;;;;;;777985;180;919040;-62
2021/11/08 00:41:18;;;;;;;19.17;11.10;;;;;;;;;;767321;180;918118;-63
2021/11/08 00:43:44;;;;;;;16.73;10.93;;;;;;;;;;769922;180;919292;-63
2021/11/08 00:46:10;;;;;;;21.03;13.50;;;;;;;;;;772076;180;919824;-63
2021/11/08 00:48:37;;;;;;;15.70;10.53;;;;;;;;;;771482;180;919817;-63
2021/11/08 00:51:02;;;;;;;17.37;11.40;;;;;;;;;;763348;180;968660;-63
2021/11/08 00:53:27;;;;;;;18.87;11.83;;;;;;;;;;767462;181;918892;-63
2021/11/08 00:55:54;;;;;;;18.70;11.53;;;;;;;;;;777454;179;920338;-63
2021/11/08 00:58:25;;;;;;;14.60;10.10;;;;;;;;;;775483;180;920148;-63
2021/11/08 01:00:45;;;;;;;16.30;8.93;;;;;;;;;;771384;180;918649;-63
2021/11/08 01:03:13;;;;;;;20.20;11.07;;;;;;;;;;774476;179;919261;-63
2021/11/08 01:05:37;;;;;;;16.63;10.20;;;;;;;;;;763767;180;1059739;-63
2021/11/08 01:08:03;;;;;;;10.80;9.10;;;;;;;;;;763770;181;936155;-63
2021/11/08 01:10:28;;;;;;;15.57;10.30;;;;;;;;;;770987;180;919041;-63
2021/11/08 01:12:54;;;;;;;12.60;8.70;;;;;;;;;;767671;180;919234;-63
2021/11/08 01:15:20;;;;;;;9.50;7.33;;;;;;;;;;764748;180;920184;-64
2021/11/08 01:17:46;;;;;;;10.97;7.97;;;;;;;;;;766166;179;920315;-63
2021/11/08 01:20:12;;;;;;;12.40;7.73;;;;;;;;;;770394;180;919900;-63
2021/11/08 01:22:38;;;;;;;8.65;7.30;;;;;;;;;;766758;179;918843;-63
2021/11/08 01:25:04;;;;;;;8.53;6.93;;;;;;;;;;772770;180;919408;-63
2021/11/08 01:27:36;;;;;;;9.80;7.57;;;;;;;;;;778665;179;918338;-63
2021/11/08 01:30:00;;;;;;;10.57;7.67;;;;;;;;;;775913;179;918611;-63
2021/11/08 01:32:25;;;;;;;10.03;7.70;;;;;;;;;;773992;180;919097;-63
2021/11/08 01:34:52;;;;;;;10.30;8.25;;;;;;;;;;775112;180;919764;-61
2021/11/08 01:37:20;;;;;;;10.77;8.10;;;;;;;;;;779006;179;918598;-62
2021/11/08 01:39:44;;;;;;;12.03;8.67;;;;;;;;;;768989;179;919344;-63
2021/11/08 01:42:10;;;;;;;10.60;8.00;;;;;;;;;;768869;180;920222;-63
2021/11/08 01:44:36;;;;;;;9.53;7.87;;;;;;;;;;773230;177;919314;-63
2021/11/08 01:47:02;;;;;;;9.90;8.10;;;;;;;;;;770694;180;920141;-63
2021/11/08 01:49:28;;;;;;;14.30;9.13;;;;;;;;;;766735;181;915684;-65
2021/11/08 01:51:54;;;;;;;10.47;7.50;;;;;;;;;;776612;180;915781;-63
2021/11/08 01:54:20;;;;;;;12.90;8.93;;;;;;;;;;772168;180;920893;-63
2021/11/08 01:56:46;;;;;;;11.10;8.50;;;;;;;;;;773436;179;919699;-64
2021/11/08 01:59:12;;;;;;;10.73;7.30;;;;;;;;;;768257;182;919708;-64
2021/11/08 02:01:37;;;;;;;16.13;9.00;;;;;;;;;;767705;180;919996;-63
2021/11/08 02:04:03;;;;;;;11.20;8.30;;;;;;;;;;768664;180;919268;-63
2021/11/08 02:06:29;;;;;;;13.23;8.90;;;;;;;;;;770578;180;928683;-64
2021/11/08 02:08:55;;;;;;;12.30;8.80;;;;;;;;;;779117;180;621955;-63
2021/11/08 02:11:21;;;;;;;14.30;10.40;;;;;;;;;;773112;180;917903;-63
2021/11/08 02:13:47;;;;;;;13.10;9.13;;;;;;;;;;771069;180;926363;-63
2021/11/08 02:16:13;;;;;;;15.30;8.97;;;;;;;;;;765589;183;919382;-64
2021/11/08 02:18:39;;;;;;;16.33;9.80;;;;;;;;;;759517;184;918880;-64
2021/11/08 02:21:08;;;;;;;14.97;9.37;;;;;;;;;;752288;183;1178556;-63
2021/11/08 02:23:30;;;;;;;11.17;8.40;;;;;;;;;;757043;183;918205;-64
2021/11/08 02:26:00;;;;;;;11.50;8.50;;;;;;;;;;767177;180;920441;-63
2021/11/08 02:28:22;;;;;;;10.73;9.00;;;;;;;;;;766141;179;919867;-64
2021/11/08 02:30:53;;;;;;;12.97;10.10;;;;;;;;;;768424;179;919001;-63
2021/11/08 02:33:14;;;;;;;11.37;8.40;;;;;;;;;;768236;181;919718;-61
2021/11/08 02:35:39;;;;;;;11.13;8.67;;;;;;;;;;768512;181;919926;-62
2021/11/08 02:38:05;;;;;;;11.10;7.77;;;;;;;;;;770810;180;919911;-62
2021/11/08 02:40:31;;;;;;;13.70;8.50;;;;;;;;;;769895;181;920213;-62
2021/11/08 02:42:58;;;;;;;14.93;8.70;;;;;;;;;;773008;179;919596;-62
2021/11/08 02:45:23;;;;;;;13.03;9.20;;;;;;;;;;776752;179;919415;-62
2021/11/08 02:47:49;;;;;;;11.33;8.57;;;;;;;;;;777124;179;918242;-62
2021/11/08 02:50:15;;;;;;;13.33;8.93;;;;;;;;;;769230;179;919629;-64
2021/11/08 02:52:41;;;;;;;13.83;9.77;;;;;;;;;;770776;181;934779;-63
2021/11/08 02:55:07;;;;;;;11.18;8.75;;;;;;;;;;775912;179;919906;-62
2021/11/08 02:57:36;;;;;;;11.60;9.10;;;;;;;;;;770278;180;1495696;-64
2021/11/08 03:00:01;;;;;;;17.20;10.40;;;;;;;;;;766537;180;919493;-63
2021/11/08 03:02:24;;;;;;;15.75;11.93;;;;;;;;;;768910;180;1021292;-62
2021/11/08 03:04:53;;;;;;;14.30;10.20;;;;;;;;;;771280;181;919687;-63
2021/11/08 03:07:17;;;;;;;16.27;10.67;;;;;;;;;;768321;180;918403;-63
2021/11/08 03:09:44;;;;;;;13.30;9.93;;;;;;;;;;769546;180;919091;-61
2021/11/08 03:12:14;;;;;;;17.23;10.53;;;;;;;;;;771219;182;919161;-63
2021/11/08 03:14:43;;;;;;;13.47;9.73;;;;;;;;;;768006;179;919632;-63
2021/11/08 03:17:05;;;;;;;14.43;9.27;;;;;;;;;;764531;180;918629;-65
2021/11/08 03:19:32;;;;;;;12.93;9.00;;;;;;;;;;767030;180;915572;-63
2021/11/08 03:21:57;;;;;;;17.83;10.57;;;;;;;;;;775292;180;916099;-63
2021/11/08 03:26:57;;;;;;;12.63;9.20;;;;;;;;;;769550;180;915161;-63
2021/11/08 03:29:20;;;;;;;13.23;10.43;;;;;;;;;;773417;180;919203;-63
2021/11/08 03:31:48;;;;;;;13.57;9.80;;;;;;;;;;768281;180;918537;-63
2021/11/08 03:34:13;;;;;;;15.50;10.27;;;;;;;;;;771765;180;919357;-63
2021/11/08 03:36:37;;;;;;;13.47;10.00;;;;;;;;;;769830;180;920372;-62
2021/11/08 03:39:03;;;;;;;15.90;10.60;;;;;;;;;;767360;182;922122;-63
2021/11/08 03:41:29;;;;;;;15.90;10.50;;;;;;;;;;764063;179;918678;-63
2021/11/08 03:43:55;;;;;;;15.47;11.07;;;;;;;;;;768486;180;919409;-63
2021/11/08 03:46:21;;;;;;;14.47;9.53;;;;;;;;;;777262;179;918743;-63
2021/11/08 03:48:47;;;;;;;18.52;10.63;;;;;;;;;;769821;180;918005;-64
2021/11/08 03:51:12;;;;;;;15.23;9.40;;;;;;;;;;771367;180;919471;-64
2021/11/08 03:53:38;;;;;;;14.27;9.23;;;;;;;;;;773829;180;916908;-63
2021/11/08 03:56:04;;;;;;;11.83;9.37;;;;;;;;;;771755;180;919140;-63
2021/11/08 03:58:31;;;;;;;14.10;9.33;;;;;;;;;;766058;180;918505;-61
2021/11/08 04:00:56;;;;;;;14.60;10.40;;;;;;;;;;767254;180;915507;-62
2021/11/08 04:03:22;;;;;;;15.80;10.73;;;;;;;;;;770853;180;915805;-63
2021/11/08 04:05:48;;;;;;;16.27;11.60;;;;;;;;;;763347;181;915675;-62
2021/11/08 04:08:16;;;;;;;17.50;9.87;;;;;;;;;;768158;181;919194;-63
2021/11/08 04:10:39;;;;;;;15.30;9.40;;;;;;;;;;774812;180;928501;-62
2021/11/08 04:13:05;;;;;;;15.03;10.33;;;;;;;;;;771489;180;918879;-63
2021/11/08 04:15:35;;;;;;;18.53;11.47;;;;;;;;;;773390;180;919194;-63
2021/11/08 04:17:58;;;;;;;17.53;11.27;;;;;;;;;;774538;180;920605;-61
2021/11/08 04:20:24;;;;;;;21.93;12.13;;;;;;;;;;768958;179;919388;-63
2021/11/08 04:22:50;;;;;;;14.90;12.00;;;;;;;;;;766434;180;919149;-64
2021/11/08 04:25:17;;;;;;;14.13;10.13;;;;;;;;;;770503;180;1020069;-62
2021/11/08 04:27:42;;;;;;;18.67;10.13;;;;;;;;;;773560;180;920163;-64
2021/11/08 04:30:09;;;;;;;15.40;11.27;;;;;;;;;;765801;179;922904;-62
2021/11/08 04:32:46;;;;;;;16.93;11.40;;;;;;;;;;765913;180;919192;-62
2021/11/08 04:35:06;;;;;;;14.90;10.47;;;;;;;;;;769488;180;918625;-63
2021/11/08 04:37:50;;;;;;;12.93;10.50;;;;;;;;;;768131;180;894289;-63
2021/11/08 04:40:12;;;;;;;19.23;10.68;;;;;;;;;;770445;180;919190;-63
2021/11/08 04:42:36;;;;;;;14.90;10.70;;;;;;;;;;770075;180;919212;-63
2021/11/08 04:45:16;;;;;;;14.43;10.00;;;;;;;;;;769190;180;918675;-63
2021/11/08 04:50:48;;;;;;;12.80;8.53;;;;;;;;;;760804;179;920237;-64
2021/11/08 04:55:39;;;;;;;13.97;8.83;;;;;;;;;;768706;180;918775;-63
2021/11/08 05:23:46;;;;;;;16.27;11.20;;;;;;;;;;769917;180;918804;-64
2021/11/08 05:28:30;;;;;;;18.27;10.70;;;;;;;;;;774045;179;918511;-63
2021/11/08 05:30:44;;;;;;;17.03;10.07;;;;;;;;;;769742;181;918961;-63
2021/11/08 05:33:10;;;;;;;15.63;9.88;;;;;;;;;;769001;180;918511;-63
2021/11/08 05:35:36;;;;;;;13.50;8.80;;;;;;;;;;768688;180;919281;-63
2021/11/08 05:38:06;;;;;;;18.73;11.47;;;;;;;;;;771487;181;918086;-64
2021/11/08 05:40:30;;;;;;;16.57;10.00;;;;;;;;;;763860;180;1020957;-64
2021/11/08 05:42:53;;;;;;;20.13;11.17;;;;;;;;;;769085;181;918783;-65
2021/11/08 05:45:19;;;;;;;13.63;10.33;;;;;;;;;;775682;180;919521;-64
2021/11/08 05:47:45;;;;;;;16.30;9.45;;;;;;;;;;767121;180;919977;-65
2021/11/08 05:50:11;;;;;;;15.67;10.40;;;;;;;;;;774896;180;919920;-66
2021/11/08 05:52:37;;;;;;;18.27;11.27;;;;;;;;;;776408;180;918624;-66
2021/11/08 05:55:03;;;;;;;16.92;11.75;;;;;;;;;;760518;180;1816645;-67
2021/11/08 06:48:57;;;;;;;28.27;16.70;;;;;;;;;;766141;181;918280;-66
2021/11/08 06:50:58;;;;;;;32.57;15.87;;;;;;;;;;770314;180;919741;-65
2021/11/08 06:53:19;;;;;;;29.50;16.97;;;;;;;;;;764590;179;919040;-63
2021/11/08 06:55:47;;;;;;;26.80;17.13;;;;;;;;;;769959;182;918536;-64
2021/11/08 06:58:16;;;;;;;26.47;16.43;;;;;;;;;;762963;181;918871;-64
2021/11/08 07:00:36;;;;;;;28.65;15.05;;;;;;;;;;769632;179;919292;-64
2021/11/08 07:03:02;;;;;;;27.90;17.53;;;;;;;;;;774303;179;918971;-64
2021/11/08 07:05:28;;;;;;;28.20;17.30;;;;;;;;;;770931;183;917539;-62
2021/11/08 07:07:54;;;;;;;31.93;17.17;;;;;;;;;;767962;179;918599;-63
2021/11/08 07:10:20;;;;;;;32.30;18.43;;;;;;;;;;767619;180;922077;-63
2021/11/08 07:12:46;;;;;;;34.13;19.33;;;;;;;;;;772523;180;918249;-63
2021/11/08 07:15:12;;;;;;;29.40;18.20;;;;;;;;;;771503;179;918208;-63
2021/11/08 07:17:37;;;;;;;29.27;18.67;;;;;;;;;;764404;180;914677;-61
2021/11/08 07:20:04;;;;;;;36.70;19.97;;;;;;;;;;775587;179;924336;-61
2021/11/08 07:22:31;;;;;;;39.80;20.60;;;;;;;;;;768128;178;1045673;-61
2021/11/08 07:24:57;;;;;;;34.50;18.53;;;;;;;;;;763133;178;919558;-62
2021/11/08 07:27:23;;;;;;;40.10;19.10;;;;;;;;;;768311;180;918732;-60
2021/11/08 07:29:49;;;;;;;34.00;18.17;;;;;;;;;;768872;181;919595;-61
2021/11/08 07:32:14;;;;;;;40.23;20.20;;;;;;;;;;763622;181;963150;-61
2021/11/08 07:34:40;;;;;;;32.03;19.97;;;;;;;;;;767594;181;916605;-62
2021/11/08 07:37:06;;;;;;;39.53;18.90;;;;;;;;;;770266;181;921186;-61
2021/11/08 07:39:32;;;;;;;29.97;16.73;;;;;;;;;;770393;180;922184;-61
2021/11/08 07:41:58;;;;;;;31.80;16.67;;;;;;;;;;767619;180;917045;-60
2021/11/08 07:44:24;;;;;;;29.17;19.33;;;;;;;;;;771706;180;918996;-61
2021/11/08 07:46:49;;;;;;;27.53;17.17;;;;;;;;;;770885;180;918214;-62
2021/11/08 07:49:15;;;;;;;24.43;17.07;;;;;;;;;;772174;179;914706;-63
2021/11/08 07:51:41;;;;;;;36.93;18.40;;;;;;;;;;770137;180;914225;-62
2021/11/08 07:54:07;;;;;;;29.97;17.10;;;;;;;;;;768679;180;939752;-63
2021/11/08 07:56:33;;;;;;;28.73;18.30;;;;;;;;;;769789;180;919139;-63
2021/11/08 07:58:59;;;;;;;42.70;20.50;;;;;;;;;;768798;180;919077;-63
2021/11/08 08:01:25;;;;;;;31.65;18.00;;;;;;;;;;775799;180;984856;-63
2021/11/08 08:03:50;;;;;;;36.33;16.80;;;;;;;;;;767936;180;919289;-64
2021/11/08 08:06:16;;;;;;;70.33;21.30;;;;;;;;;;768201;179;920163;-63
2021/11/08 08:08:45;;;;;;;42.77;17.17;;;;;;;;;;772781;180;918732;-62
2021/11/08 08:11:08;;;;;;;53.10;19.27;;;;;;;;;;772647;180;920347;-63
2021/11/08 08:13:36;;;;;;;33.23;18.40;;;;;;;;;;764713;180;919325;-63
2021/11/08 08:16:00;;;;;;;37.07;21.83;;;;;;;;;;772863;180;1254341;-66
2021/11/08 08:18:27;;;;;;;25.80;17.10;;;;;;;;;;763197;180;919223;-64
2021/11/08 08:20:53;;;;;;;37.50;19.10;;;;;;;;;;766800;180;919725;-63
2021/11/08 08:23:19;;;;;;;40.63;19.30;;;;;;;;;;765778;180;919088;-63
2021/11/08 08:25:45;;;;;;;30.62;17.55;;;;;;;;;;774527;180;918373;-63
2021/11/08 08:28:11;;;;;;;34.80;20.80;;;;;;;;;;761773;183;918421;-64
2021/11/08 08:30:37;;;;;;;32.53;17.83;;;;;;;;;;757999;183;918289;-63
2021/11/08 08:33:03;;;;;;;32.43;18.93;;;;;;;;;;761404;183;918499;-63
2021/11/08 08:35:28;;;;;;;28.53;15.73;;;;;;;;;;761984;180;918678;-63
2021/11/08 08:37:54;;;;;;;28.30;16.73;;;;;;;;;;757278;182;919930;-63
2021/11/08 08:40:20;;;;;;;24.83;15.20;;;;;;;;;;767012;182;918850;-63
2021/11/08 08:42:46;;;;;;;24.97;13.80;;;;;;;;;;766954;180;919269;-63
2021/11/08 08:45:12;;;;;;;23.67;14.13;;;;;;;;;;770571;180;918960;-64
2021/11/08 08:47:38;;;;;;;26.17;14.53;;;;;;;;;;764887;181;1738158;-62
2021/11/08 08:50:04;;;;;;;21.45;13.20;;;;;;;;;;760718;183;921156;-63
2021/11/08 08:52:29;;;;;;;20.40;12.47;;;;;;;;;;770196;180;931360;-66
2021/11/08 08:54:55;;;;;;;23.27;11.90;;;;;;;;;;768057;180;920052;-63
2021/11/08 08:57:21;;;;;;;24.08;13.20;;;;;;;;;;775095;180;918812;-63
2021/11/08 08:59:47;;;;;;;21.67;9.60;;;;;;;;;;765853;180;919824;-64
2021/11/08 09:02:13;;;;;;;19.57;10.40;;;;;;;;;;765552;180;919266;-64
2021/11/08 09:04:39;;;;;;;15.37;10.20;;;;;;;;;;774374;180;927072;-64
2021/11/08 09:07:04;;;;;;;17.83;9.30;;;;;;;;;;771419;179;918330;-64
2021/11/08 09:09:30;;;;;;;13.80;8.70;;;;;;;;;;768566;179;940925;-64
2021/11/08 09:11:56;;;;;;;12.27;8.93;;;;;;;;;;765281;180;919609;-63
2021/11/08 09:14:22;;;;;;;25.33;10.27;;;;;;;;;;767047;180;942835;-64
2021/11/08 09:16:48;;;;;;;12.43;8.00;;;;;;;;;;767900;180;919644;-64
2021/11/08 09:19:14;;;;;;;18.83;9.07;;;;;;;;;;768502;181;926529;-64
2021/11/08 09:21:40;;;;;;;18.10;8.33;;;;;;;;;;771706;181;919711;-64
2021/11/08 09:24:06;;;;;;;13.88;6.80;;;;;;;;;;771041;180;921738;-64
2021/11/08 09:26:31;;;;;;;13.00;7.70;;;;;;;;;;768821;180;919500;-66
2021/11/08 09:28:57;;;;;;;16.35;7.32;;;;;;;;;;770954;179;919365;-63
2021/11/08 09:31:23;;;;;;;7.57;5.73;;;;;;;;;;766175;180;919202;-63
2021/11/08 09:33:49;;;;;;;9.33;5.80;;;;;;;;;;764901;180;974262;-64
2021/11/08 09:36:15;;;;;;;7.93;6.30;;;;;;;;;;775460;180;919214;-65
2021/11/08 09:38:48;;;;;;;14.57;6.37;;;;;;;;;;770429;180;918928;-64
2021/11/08 09:41:09;;;;;;;17.53;6.50;;;;;;;;;;765515;179;919089;-64
2021/11/08 09:43:33;;;;;;;9.57;5.57;;;;;;;;;;765257;179;920405;-63
2021/11/08 09:45:59;;;;;;;13.70;5.17;;;;;;;;;;778255;179;880267;-63
2021/11/08 09:48:25;;;;;;;12.82;6.00;;;;;;;;;;768839;181;918024;-63
2021/11/08 09:50:51;;;;;;;9.60;5.73;;;;;;;;;;766319;179;925263;-63
2021/11/08 09:53:17;;;;;;;11.00;4.60;;;;;;;;;;776955;180;918836;-63
2021/11/08 09:55:44;;;;;;;11.60;4.93;;;;;;;;;;771598;180;921050;-63
2021/11/08 09:58:08;;;;;;;9.45;4.50;;;;;;;;;;772651;179;978694;-63
2021/11/08 10:00:46;;;;;;;9.40;4.70;;;;;;;;;;775617;179;921679;-64
2021/11/08 10:03:12;;;;;;;8.50;4.60;;;;;;;;;;773778;179;919315;-65
2021/11/08 10:05:41;;;;;;;12.00;5.30;;;;;;;;;;765139;180;944967;-63
2021/11/08 10:08:05;;;;;;;7.60;5.27;;;;;;;;;;764502;181;918691;-64
2021/11/08 10:10:31;;;;;;;10.10;5.23;;;;;;;;;;772717;180;1020985;-63
2021/11/08 10:13:08;;;;;;;10.93;4.93;;;;;;;;;;770053;179;920190;-64
2021/11/08 10:15:33;;;;;;;7.80;4.50;;;;;;;;;;764522;181;918656;-63
2021/11/08 10:17:59;;;;;;;7.23;4.00;;;;;;;;;;765230;179;919651;-64
2021/11/08 10:20:28;;;;;;;7.13;4.57;;;;;;;;;;773678;181;919774;-64
2021/11/08 10:22:54;;;;;;;10.80;5.37;;;;;;;;;;770566;180;919364;-63
2021/11/08 10:25:20;;;;;;;9.87;4.50;;;;;;;;;;764060;181;922060;-63
2021/11/08 10:27:45;;;;;;;10.60;5.60;;;;;;;;;;763769;181;928563;-63
2021/11/08 10:30:17;;;;;;;8.33;5.47;;;;;;;;;;773548;180;917850;-63
2021/11/08 10:32:43;;;;;;;12.10;4.53;;;;;;;;;;767995;179;919120;-63
2021/11/08 10:35:09;;;;;;;7.43;4.70;;;;;;;;;;769408;180;1014262;-63
2021/11/08 10:37:35;;;;;;;9.88;5.00;;;;;;;;;;769241;180;918695;-60
2021/11/08 10:40:01;;;;;;;13.00;4.80;;;;;;;;;;762187;184;919997;-63
2021/11/08 10:42:26;;;;;;;8.20;4.70;;;;;;;;;;770325;181;918213;-63
2021/11/08 10:44:53;;;;;;;6.73;3.93;;;;;;;;;;766441;181;919060;-62
2021/11/08 10:47:21;;;;;;;7.10;4.27;;;;;;;;;;773145;180;919526;-62
2021/11/08 10:49:45;;;;;;;12.40;4.23;;;;;;;;;;765941;180;921676;-62
2021/11/08 10:52:14;;;;;;;19.30;4.13;;;;;;;;;;769294;180;923634;-61
2021/11/08 10:54:37;;;;;;;12.83;4.60;;;;;;;;;;768910;180;918272;-62
2021/11/08 10:57:05;;;;;;;7.53;4.60;;;;;;;;;;768256;180;923782;-64
2021/11/08 10:59:30;;;;;;;7.03;3.77;;;;;;;;;;773667;179;918210;-63
2021/11/08 11:01:56;;;;;;;5.00;3.47;;;;;;;;;;769158;180;918464;-63
2021/11/08 11:04:28;;;;;;;12.67;4.60;;;;;;;;;;761971;180;918816;-63
2021/11/08 11:06:54;;;;;;;9.27;4.30;;;;;;;;;;769152;179;918835;-62
2021/11/08 11:09:20;;;;;;;5.57;3.80;;;;;;;;;;765526;179;916202;-63
2021/11/08 11:11:46;;;;;;;10.80;5.03;;;;;;;;;;771666;181;916183;-62
2021/11/08 11:14:12;;;;;;;8.80;5.53;;;;;;;;;;767260;180;916571;-62
2021/11/08 11:16:38;;;;;;;10.43;4.30;;;;;;;;;;767727;179;920510;-63
2021/11/08 11:19:07;;;;;;;9.02;4.70;;;;;;;;;;766625;180;919534;-65
2021/11/08 11:21:33;;;;;;;5.70;4.40;;;;;;;;;;765617;180;919176;-63
2021/11/08 11:24:03;;;;;;;10.80;5.50;;;;;;;;;;763430;181;917332;-63
2021/11/08 11:26:29;;;;;;;5.57;4.30;;;;;;;;;;763922;180;920718;-62
2021/11/08 11:28:53;;;;;;;10.80;4.20;;;;;;;;;;770267;180;919329;-64
2021/11/08 11:31:19;;;;;;;8.43;5.23;;;;;;;;;;772017;180;918918;-62
2021/11/08 11:33:45;;;;;;;9.53;4.90;;;;;;;;;;770488;180;921622;-66
2021/11/08 11:36:11;;;;;;;6.50;4.37;;;;;;;;;;766052;181;920951;-62
2021/11/08 11:38:40;;;;;;;6.95;4.30;;;;;;;;;;776962;180;920408;-64
2021/11/08 11:41:04;;;;;;;8.13;4.53;;;;;;;;;;763470;181;918812;-63
2021/11/08 11:43:31;;;;;;;8.30;4.50;;;;;;;;;;762013;180;921028;-64
2021/11/08 11:45:57;;;;;;;9.10;5.23;;;;;;;;;;775171;180;916518;-63
2021/11/08 11:48:22;;;;;;;6.63;4.87;;;;;;;;;;771402;180;915582;-63
2021/11/08 11:50:48;;;;;;;8.25;4.62;;;;;;;;;;761816;180;2250275;-62
2021/11/08 11:53:14;;;;;;;10.00;4.53;;;;;;;;;;774700;180;922151;-64
2021/11/08 11:55:40;;;;;;;12.63;4.97;;;;;;;;;;770277;180;916195;-63
2021/11/08 11:58:06;;;;;;;5.30;4.27;;;;;;;;;;770509;180;914093;-64
2021/11/08 12:00:32;;;;;;;12.00;4.78;;;;;;;;;;768123;180;922954;-62
2021/11/08 12:02:58;;;;;;;5.20;3.90;;;;;;;;;;766267;181;916896;-65
2021/11/08 12:05:23;;;;;;;11.60;5.37;;;;;;;;;;766665;179;918967;-64
2021/11/08 12:07:49;;;;;;;8.43;5.30;;;;;;;;;;771236;179;918542;-63
2021/11/08 12:10:15;;;;;;;9.07;5.63;;;;;;;;;;776293;180;919011;-63
2021/11/08 12:12:41;;;;;;;10.65;5.15;;;;;;;;;;772124;180;918596;-63
2021/11/08 12:15:08;;;;;;;7.00;3.87;;;;;;;;;;773320;179;919269;-63
2021/11/08 12:17:37;;;;;;;8.65;4.22;;;;;;;;;;777932;180;919059;-63
2021/11/08 12:20:04;;;;;;;7.73;4.43;;;;;;;;;;771579;179;919313;-63
2021/11/08 12:22:30;;;;;;;7.20;4.80;;;;;;;;;;766659;180;918696;-63
2021/11/08 12:24:56;;;;;;;7.03;4.28;;;;;;;;;;766872;180;926943;-63
2021/11/08 12:27:22;;;;;;;10.23;5.20;;;;;;;;;;775095;180;919653;-63
2021/11/08 12:29:49;;;;;;;13.03;4.93;;;;;;;;;;768488;180;918923;-63
2021/11/08 12:32:15;;;;;;;7.63;4.90;;;;;;;;;;770245;180;1020099;-63
2021/11/08 12:34:42;;;;;;;8.97;4.97;;;;;;;;;;774052;180;919360;-63
2021/11/08 12:37:07;;;;;;;10.63;5.40;;;;;;;;;;769604;179;918033;-62
2021/11/08 12:39:33;;;;;;;7.70;5.50;;;;;;;;;;767079;180;920805;-62
2021/11/08 12:42:01;;;;;;;10.55;5.12;;;;;;;;;;764359;181;919716;-63
2021/11/08 12:44:25;;;;;;;10.60;5.40;;;;;;;;;;771221;180;919596;-63
2021/11/08 12:46:51;;;;;;;10.07;6.13;;;;;;;;;;767535;180;919383;-63
2021/11/08 12:49:20;;;;;;;11.27;6.00;;;;;;;;;;767178;181;919443;-64
2021/11/08 12:51:51;;;;;;;10.93;6.10;;;;;;;;;;774691;180;918095;-64
2021/11/08 12:54:16;;;;;;;9.93;6.10;;;;;;;;;;766239;180;918746;-63
2021/11/08 12:56:44;;;;;;;9.60;5.65;;;;;;;;;;764886;180;1137046;-62
2021/11/08 12:59:11;;;;;;;13.33;5.43;;;;;;;;;;769265;180;919435;-64
2021/11/08 13:01:36;;;;;;;10.07;5.67;;;;;;;;;;776958;180;918894;-62
2021/11/08 13:04:02;;;;;;;8.00;4.93;;;;;;;;;;765058;180;919546;-63
2021/11/08 13:06:28;;;;;;;12.07;6.30;;;;;;;;;;766239;181;919403;-62
2021/11/08 13:09:00;;;;;;;11.77;6.67;;;;;;;;;;771982;180;919497;-63
2021/11/08 13:11:25;;;;;;;14.80;6.60;;;;;;;;;;768556;180;921031;-64
2021/11/08 13:13:57;;;;;;;11.03;6.03;;;;;;;;;;769207;180;937963;-63
2021/11/08 13:16:29;;;;;;;7.23;5.50;;;;;;;;;;771407;180;918165;-64
2021/11/08 13:18:55;;;;;;;10.60;6.40;;;;;;;;;;774691;179;918484;-63
2021/11/08 13:21:20;;;;;;;9.87;5.97;;;;;;;;;;771016;180;927086;-63
2021/11/08 13:23:46;;;;;;;12.73;7.20;;;;;;;;;;771821;180;919660;-63
2021/11/08 13:26:12;;;;;;;10.90;6.33;;;;;;;;;;768599;180;919848;-63
2021/11/08 13:28:38;;;;;;;20.80;6.80;;;;;;;;;;774213;180;917909;-63
2021/11/08 13:31:04;;;;;;;13.47;6.87;;;;;;;;;;768154;179;920432;-65
2021/11/08 13:33:30;;;;;;;15.88;7.40;;;;;;;;;;764334;180;919435;-64
2021/11/08 13:35:55;;;;;;;19.80;7.43;;;;;;;;;;774879;180;917248;-64
2021/11/08 13:38:21;;;;;;;10.27;7.90;;;;;;;;;;773108;180;919276;-66
2021/11/08 13:40:49;;;;;;;10.53;5.80;;;;;;;;;;766683;180;918704;-63
2021/11/08 13:43:14;;;;;;;10.60;7.10;;;;;;;;;;772366;181;918429;-63
2021/11/08 13:45:43;;;;;;;6.43;5.70;;;;;;;;;;773810;180;919044;-63
2021/11/08 13:48:09;;;;;;;9.93;5.57;;;;;;;;;;771762;180;632072;-63
2021/11/08 13:50:35;;;;;;;10.23;6.33;;;;;;;;;;772745;180;617026;-63
2021/11/08 13:53:01;;;;;;;11.10;6.73;;;;;;;;;;776675;180;918814;-62
2021/11/08 13:55:27;;;;;;;7.93;6.63;;;;;;;;;;766630;180;920085;-63
2021/11/08 13:57:53;;;;;;;13.27;6.73;;;;;;;;;;768365;180;918948;-63
2021/11/08 14:00:19;;;;;;;12.77;6.90;;;;;;;;;;776031;180;1019250;-62
2021/11/08 14:02:45;;;;;;;23.13;7.30;;;;;;;;;;767908;180;918021;-63
2021/11/08 14:05:10;;;;;;;9.80;6.40;;;;;;;;;;770663;180;919980;-63
2021/11/08 14:07:38;;;;;;;12.80;7.25;;;;;;;;;;771691;180;1635332;-62
2021/11/08 14:10:04;;;;;;;11.20;6.72;;;;;;;;;;771463;181;919001;-62
2021/11/08 14:12:31;;;;;;;11.93;6.78;;;;;;;;;;764168;180;918963;-62
2021/11/08 14:14:57;;;;;;;16.77;8.00;;;;;;;;;;767253;180;918594;-62
2021/11/08 14:17:21;;;;;;;8.73;6.70;;;;;;;;;;771291;180;884602;-63
2021/11/08 14:19:47;;;;;;;13.33;8.00;;;;;;;;;;768860;179;918553;-63
2021/11/08 14:22:13;;;;;;;15.20;6.97;;;;;;;;;;766007;181;919517;-63
2021/11/08 14:24:39;;;;;;;14.13;7.53;;;;;;;;;;775348;180;919041;-62
2021/11/08 14:27:05;;;;;;;15.40;7.60;;;;;;;;;;768483;180;919400;-63
2021/11/08 14:29:31;;;;;;;11.27;7.30;;;;;;;;;;770439;178;919556;-63
2021/11/08 14:31:57;;;;;;;13.05;8.00;;;;;;;;;;774202;180;921249;-62
2021/11/08 14:34:26;;;;;;;12.60;7.63;;;;;;;;;;777833;179;919009;-62
2021/11/08 14:36:49;;;;;;;15.83;10.20;;;;;;;;;;766765;180;932058;-63
2021/11/08 14:39:16;;;;;;;11.00;7.93;;;;;;;;;;767460;179;919299;-65
2021/11/08 14:41:47;;;;;;;16.40;8.80;;;;;;;;;;776186;180;919039;-62
2021/11/08 14:44:13;;;;;;;13.93;7.83;;;;;;;;;;771302;180;919654;-63
2021/11/08 14:46:39;;;;;;;11.90;7.10;;;;;;;;;;764465;180;919053;-62
2021/11/08 14:49:10;;;;;;;8.32;5.28;;;;;;;;;;772096;180;919497;-62
2021/11/08 14:51:36;;;;;;;7.10;4.90;;;;;;;;;;771419;181;816084;-63
2021/11/08 14:54:02;;;;;;;5.97;4.10;;;;;;;;;;764067;182;919527;-62
2021/11/08 14:56:28;;;;;;;6.45;3.87;;;;;;;;;;767609;181;919826;-62
2021/11/08 14:58:56;;;;;;;4.90;3.47;;;;;;;;;;772372;181;928121;-64
2021/11/08 15:01:22;;;;;;;4.27;3.50;;;;;;;;;;769187;180;918299;-62
2021/11/08 15:03:48;;;;;;;7.80;4.10;;;;;;;;;;772323;180;814338;-62
2021/11/08 15:06:15;;;;;;;6.30;4.37;;;;;;;;;;766897;180;919226;-63
2021/11/08 15:08:40;;;;;;;5.23;3.93;;;;;;;;;;767953;181;932873;-63
2021/11/08 15:11:06;;;;;;;7.43;5.73;;;;;;;;;;761532;180;945361;-63
2021/11/08 15:13:32;;;;;;;6.77;5.17;;;;;;;;;;767154;181;919074;-64
2021/11/08 15:15:57;;;;;;;7.47;5.00;;;;;;;;;;777718;180;920646;-64
2021/11/08 15:18:24;;;;;;;10.30;6.40;;;;;;;;;;771906;180;919173;-62
2021/11/08 15:20:51;;;;;;;11.02;7.53;;;;;;;;;;765778;180;918933;-61
2021/11/08 15:23:20;;;;;;;6.47;4.77;;;;;;;;;;775124;180;918041;-62
2021/11/08 15:25:50;;;;;;;8.90;5.80;;;;;;;;;;767945;180;893700;-62
2021/11/08 15:28:16;;;;;;;5.67;4.37;;;;;;;;;;767828;179;919307;-63
2021/11/08 15:30:43;;;;;;;5.50;4.27;;;;;;;;;;762474;181;911921;-62
2021/11/08 15:33:11;;;;;;;7.00;5.03;;;;;;;;;;774755;179;913748;-62
2021/11/08 15:35:37;;;;;;;5.57;4.53;;;;;;;;;;773283;180;915069;-62
2021/11/08 15:38:03;;;;;;;6.25;4.45;;;;;;;;;;764962;180;963218;-63